createdAt,value
2022-08-17T00:03:29.937Z,92.44
2022-08-17T00:08:40.214Z,92.41
2022-08-17T00:13:49.379Z,92.47
2022-08-17T00:19:07.886Z,92.36
2022-08-17T00:24:16.603Z,92.70
2022-08-17T00:29:23.870Z,92.81
2022-08-17T00:34:31.215Z,92.75
2022-08-17T00:39:40.252Z,92.55
2022-08-17T00:44:47.498Z,92.73
2022-08-17T00:49:55.509Z,93.29
2022-08-17T00:55:04.025Z,93.70
2022-08-17T01:00:16.488Z,93.83
2022-08-17T01:05:27.816Z,94.04
2022-08-17T01:10:58.624Z,93.75
2022-08-17T01:16:13.623Z,93.53
2022-08-17T01:21:28.926Z,93.93
2022-08-17T01:26:37.711Z,94.14
2022-08-17T01:31:51.261Z,94.59
2022-08-17T01:36:59.142Z,94.85
2022-08-17T01:42:12.692Z,94.95
2022-08-17T01:47:20.824Z,95.06
2022-08-17T01:52:27.815Z,94.88
2022-08-17T01:57:35.165Z,94.97
2022-08-17T02:02:42.968Z,94.61
2022-08-17T02:08:00.267Z,95.23
2022-08-17T02:13:07.971Z,96.69
2022-08-17T02:18:16.967Z,97.43
2022-08-17T02:23:27.657Z,97.68
2022-08-17T02:28:34.650Z,96.77
2022-08-17T02:33:43.739Z,96.05
2022-08-17T02:38:51.004Z,97.47
2022-08-17T02:43:58.011Z,96.91
2022-08-17T02:49:05.667Z,96.57
2022-08-17T02:54:39.974Z,96.88
2022-08-17T02:59:37.938Z,96.87
2022-08-17T03:04:44.935Z,97.15
2022-08-17T03:09:54.229Z,97.55
2022-08-17T03:15:03.650Z,97.73
2022-08-17T03:20:12.322Z,97.87
2022-08-17T03:25:22.733Z,98.52
2022-08-17T03:30:31.434Z,99.78
2022-08-17T03:35:40.662Z,100.00
2022-08-17T03:40:56.819Z,100.00
2022-08-17T03:46:34.637Z,100.00
2022-08-17T03:52:14.713Z,100.00
2022-08-17T03:57:21.817Z,100.00
2022-08-17T04:02:32.344Z,100.00
2022-08-17T04:07:39.301Z,100.00
2022-08-17T04:12:49.765Z,100.00
2022-08-17T04:17:57.900Z,100.00
2022-08-17T04:23:07.230Z,100.00
2022-08-17T04:28:15.841Z,100.00
2022-08-17T04:33:25.558Z,100.00
2022-08-17T04:38:34.944Z,100.00
2022-08-17T04:43:44.081Z,100.00
2022-08-17T04:48:53.371Z,100.00
2022-08-17T04:54:02.776Z,100.00
2022-08-17T04:59:15.658Z,99.80
2022-08-17T05:04:34.204Z,99.47
2022-08-17T05:09:42.322Z,99.04
2022-08-17T05:14:49.205Z,98.74
2022-08-17T05:19:56.202Z,98.45
2022-08-17T05:25:03.095Z,98.12
2022-08-17T05:30:12.760Z,97.54
2022-08-17T05:35:19.749Z,96.77
2022-08-17T05:40:28.126Z,96.13
2022-08-17T05:45:54.742Z,95.53
2022-08-17T05:51:16.984Z,94.86
2022-08-17T05:56:39.674Z,94.46
2022-08-17T06:01:53.593Z,93.44
2022-08-17T06:07:08.878Z,92.68
2022-08-17T06:12:35.816Z,91.73
2022-08-17T06:17:44.993Z,91.33
2022-08-17T06:22:57.311Z,91.04
2022-08-17T06:28:07.175Z,90.85
2022-08-17T06:33:23.994Z,90.45
2022-08-17T06:38:41.434Z,89.52
2022-08-17T06:44:02.143Z,88.71
2022-08-17T06:49:22.052Z,87.63
2022-08-17T06:54:50.788Z,87.29
2022-08-17T07:00:02.096Z,86.93
2022-08-17T07:05:11.511Z,86.54
2022-08-17T07:10:21.201Z,85.75
2022-08-17T07:15:39.100Z,85.72
2022-08-17T07:20:52.393Z,85.45
2022-08-17T07:26:09.179Z,84.91
2022-08-17T07:31:18.018Z,84.44
2022-08-17T07:36:33.930Z,84.31
2022-08-17T07:41:53.367Z,84.58
2022-08-17T07:47:23.947Z,83.56
2022-08-17T07:52:51.366Z,82.70
2022-08-17T07:58:02.088Z,82.04
2022-08-17T08:03:22.299Z,81.57
2022-08-17T08:08:38.864Z,81.24
2022-08-17T08:13:46.536Z,81.24
2022-08-17T08:18:57.756Z,80.41
2022-08-17T08:24:23.960Z,79.85
2022-08-17T08:29:40.878Z,78.74
2022-08-17T08:35:01.682Z,78.03
2022-08-17T08:40:23.455Z,75.81
2022-08-17T08:45:40.059Z,75.78
2022-08-17T08:50:57.323Z,75.37
2022-08-17T08:56:11.250Z,73.76
2022-08-17T09:01:24.584Z,74.07
2022-08-17T09:06:45.662Z,72.16
2022-08-17T09:12:04.230Z,72.06
2022-08-17T09:17:16.555Z,71.90
2022-08-17T09:22:38.392Z,71.33
2022-08-17T09:27:57.459Z,71.08
2022-08-17T09:33:11.489Z,70.08
2022-08-17T09:38:32.150Z,68.81
2022-08-17T09:43:47.787Z,68.22
2022-08-17T09:48:58.991Z,65.72
2022-08-17T09:54:37.118Z,64.42
2022-08-17T09:59:47.868Z,64.05
2022-08-17T10:05:05.879Z,64.30
2022-08-17T10:10:19.783Z,63.61
2022-08-17T10:15:42.634Z,62.00
2022-08-17T10:21:17.003Z,62.61
2022-08-17T10:26:28.415Z,63.25
2022-08-17T10:32:04.557Z,62.96
2022-08-17T10:37:28.650Z,62.85
2022-08-17T10:42:46.014Z,61.64
2022-08-17T10:48:06.353Z,61.25
2022-08-17T10:54:05.810Z,61.44
2022-08-17T10:59:32.669Z,60.94
2022-08-17T11:04:57.625Z,61.46
2022-08-17T11:10:24.035Z,60.67
2022-08-17T11:15:47.296Z,60.45
2022-08-17T11:21:23.826Z,60.20
2022-08-17T11:26:34.291Z,59.73
2022-08-17T11:31:45.592Z,59.27
2022-08-17T11:37:36.299Z,59.01
2022-08-17T11:42:59.455Z,58.45
2022-08-17T11:48:30.117Z,58.67
2022-08-17T11:54:31.001Z,58.14
2022-08-17T12:00:10.994Z,56.69
2022-08-17T12:05:35.437Z,56.76
2022-08-17T12:11:01.356Z,55.95
2022-08-17T12:16:10.158Z,56.09
2022-08-17T12:21:28.897Z,56.53
2022-08-17T12:26:37.978Z,53.89
2022-08-17T12:31:47.925Z,52.71
2022-08-17T12:37:01.233Z,53.48
2022-08-17T12:42:23.449Z,52.62
2022-08-17T12:47:32.058Z,51.48
2022-08-17T12:52:42.549Z,50.80
2022-08-17T12:57:54.681Z,51.75
2022-08-17T13:03:06.033Z,51.30
2022-08-17T13:08:20.115Z,50.90
2022-08-17T13:13:30.233Z,50.92
2022-08-17T13:18:42.676Z,49.44
2022-08-17T13:23:59.878Z,50.01
2022-08-17T13:29:08.684Z,49.97
2022-08-17T13:34:33.423Z,49.96
2022-08-17T13:39:44.528Z,50.62
2022-08-17T13:44:51.762Z,50.64
2022-08-17T13:49:59.099Z,49.33
2022-08-17T13:55:06.190Z,49.09
2022-08-17T14:00:30.057Z,48.53
2022-08-17T14:05:39.657Z,48.87
2022-08-17T14:10:58.969Z,48.77
2022-08-17T14:16:06.917Z,48.54
2022-08-17T14:21:15.211Z,49.17
2022-08-17T14:26:23.291Z,49.86
2022-08-17T14:31:35.389Z,49.87
2022-08-17T14:36:48.620Z,50.51
2022-08-17T14:41:58.025Z,50.08
2022-08-17T14:47:12.188Z,49.39
2022-08-17T14:52:22.354Z,49.63
2022-08-17T14:57:43.992Z,49.04
2022-08-17T15:02:53.925Z,49.98
2022-08-17T15:08:01.742Z,49.87
2022-08-17T15:13:18.488Z,50.48
2022-08-17T15:18:25.867Z,51.41
2022-08-17T15:23:33.792Z,52.13
2022-08-17T15:28:41.448Z,52.02
2022-08-17T15:33:49.808Z,50.37
2022-08-17T15:38:59.011Z,50.82
2022-08-17T15:44:07.681Z,50.74
2022-08-17T15:49:15.239Z,50.69
2022-08-17T15:54:23.641Z,50.76
2022-08-17T15:59:31.276Z,51.76
2022-08-17T16:04:40.789Z,54.79
2022-08-17T16:09:52.066Z,56.37
2022-08-17T16:15:00.056Z,57.28
2022-08-17T16:20:09.476Z,57.92
2022-08-17T16:25:49.707Z,58.79
2022-08-17T16:30:59.373Z,59.61
2022-08-17T16:36:08.332Z,60.44
2022-08-17T16:41:36.913Z,61.09
2022-08-17T16:46:45.739Z,61.62
2022-08-17T16:51:53.342Z,62.02
2022-08-17T16:57:00.532Z,62.41
2022-08-17T17:02:11.347Z,62.28
2022-08-17T17:07:37.633Z,61.89
2022-08-17T17:13:03.060Z,61.81
2022-08-17T17:18:15.135Z,61.76
2022-08-17T17:23:39.024Z,61.75
2022-08-17T17:29:05.092Z,62.17
2022-08-17T17:34:16.350Z,62.42
2022-08-17T17:39:32.234Z,63.31
2022-08-17T17:44:45.108Z,64.04
2022-08-17T17:49:52.774Z,64.66
2022-08-17T17:55:13.575Z,65.52
2022-08-17T18:00:25.201Z,66.48
2022-08-17T18:06:00.565Z,67.25
2022-08-17T18:11:24.346Z,68.42
2022-08-17T18:16:33.477Z,69.19
2022-08-17T18:21:45.121Z,69.61
2022-08-17T18:26:56.131Z,70.10
2022-08-17T18:32:26.025Z,70.70
2022-08-17T18:37:40.333Z,71.95
2022-08-17T18:42:57.023Z,72.67
2022-08-17T18:48:08.635Z,73.84
2022-08-17T18:53:34.821Z,74.46
2022-08-17T18:58:41.152Z,75.07
2022-08-17T19:03:50.677Z,75.86
2022-08-17T19:08:58.444Z,76.84
2022-08-17T19:14:10.642Z,78.06
2022-08-17T19:19:27.122Z,78.47
2022-08-17T19:24:38.046Z,78.84
2022-08-17T19:30:04.029Z,79.26
2022-08-17T19:35:17.854Z,79.78
2022-08-17T19:40:52.130Z,80.19
2022-08-17T19:46:08.830Z,80.51
2022-08-17T19:51:20.879Z,80.44
2022-08-17T19:56:36.454Z,80.11
2022-08-17T20:01:50.310Z,80.50
2022-08-17T20:07:01.092Z,80.75
2022-08-17T20:12:12.038Z,81.02
2022-08-17T20:17:19.957Z,81.33
2022-08-17T20:22:52.165Z,81.66
2022-08-17T20:28:06.270Z,82.32
2022-08-17T20:33:28.542Z,82.69
2022-08-17T20:38:47.841Z,82.90
2022-08-17T20:44:05.978Z,83.07
2022-08-17T20:49:25.147Z,83.56
2022-08-17T20:54:53.778Z,83.93
2022-08-17T21:00:14.960Z,84.22
2022-08-17T21:05:38.953Z,84.44
2022-08-17T21:10:48.230Z,84.40
2022-08-17T21:16:02.278Z,84.44
2022-08-17T21:21:20.725Z,84.87
2022-08-17T21:26:50.156Z,85.28
2022-08-17T21:32:24.525Z,85.93
2022-08-17T21:37:40.295Z,86.42
2022-08-17T21:42:50.718Z,87.18
2022-08-17T21:48:14.293Z,87.26
2022-08-17T21:53:33.215Z,87.33
2022-08-17T21:58:47.849Z,87.31
2022-08-17T22:04:02.128Z,87.24
2022-08-17T22:09:19.873Z,87.29
2022-08-17T22:14:51.816Z,87.20
2022-08-17T22:19:59.643Z,87.60
2022-08-17T22:25:21.025Z,88.02
2022-08-17T22:30:39.681Z,88.48
2022-08-17T22:35:48.083Z,88.47
2022-08-17T22:40:58.409Z,88.50
2022-08-17T22:46:12.257Z,88.70
2022-08-17T22:51:23.035Z,89.05
2022-08-17T22:56:48.354Z,89.03
2022-08-17T23:02:15.017Z,89.31
2022-08-17T23:07:24.144Z,89.02
2022-08-17T23:12:31.157Z,89.08
2022-08-17T23:17:39.067Z,88.95
2022-08-17T23:22:51.255Z,89.15
2022-08-17T23:28:04.953Z,89.62
2022-08-17T23:33:17.651Z,89.74
2022-08-17T23:38:27.263Z,89.93
2022-08-17T23:43:34.835Z,90.02
2022-08-17T23:48:42.362Z,90.30
2022-08-17T23:53:53.516Z,90.30
2022-08-17T23:59:00.748Z,90.95
